AZU4315 SBBR-SBIZ
Flight info
| Callsign | AZU4315 |
|---|---|
| Flight time | N/A |
| Altitude | 17000 |
| Route | TEDEP DCT ISINA DCT ASELU DCT VUPAR |
| Aircraft | AT76/M-SDFGIRY/S |
Departure
| Time | 2026-05-07 01:58 |
|---|---|
| Airport | Presidente Juscelino Kubitschek International Airport (SBBR) |
Arrival
| Time | N/A |
|---|---|
| Airport | Prefeito Renato Moreira Airport (SBIZ) |
| Time | Latitude | Longitude | Altitude | Speed | Heading |
|---|---|---|---|---|---|
| 2026-05-07 01:46 | -15.86723 | -47.92242 | 3460 ft | 0 kts | 206° |
| 2026-05-07 01:49 | -15.86717 | -47.92240 | 3460 ft | 2 kts | 203° |
| 2026-05-07 01:50 | -15.86703 | -47.92232 | 3460 ft | 2 kts | 206° |
| 2026-05-07 01:50 | -15.86688 | -47.92225 | 3460 ft | 2 kts | 206° |
| 2026-05-07 01:50 | -15.86673 | -47.92217 | 3460 ft | 2 kts | 206° |
| 2026-05-07 01:50 | -15.86658 | -47.92209 | 3460 ft | 2 kts | 205° |
| 2026-05-07 01:51 | -15.86643 | -47.92202 | 3460 ft | 2 kts | 205° |
| 2026-05-07 01:51 | -15.86629 | -47.92194 | 3460 ft | 2 kts | 239° |
| 2026-05-07 01:51 | -15.86626 | -47.92184 | 3460 ft | 0 kts | 295° |
| 2026-05-07 01:53 | -15.86626 | -47.92185 | 3460 ft | 2 kts | 295° |
| 2026-05-07 01:54 | -15.86610 | -47.92221 | 3460 ft | 10 kts | 295° |
| 2026-05-07 01:54 | -15.86567 | -47.92302 | 3458 ft | 14 kts | 308° |
| 2026-05-07 01:54 | -15.86527 | -47.92396 | 3458 ft | 15 kts | 273° |
| 2026-05-07 01:54 | -15.86533 | -47.92503 | 3458 ft | 15 kts | 266° |
| 2026-05-07 01:55 | -15.86541 | -47.92611 | 3458 ft | 15 kts | 265° |
| 2026-05-07 01:55 | -15.86549 | -47.92719 | 3457 ft | 15 kts | 266° |
| 2026-05-07 01:55 | -15.86527 | -47.92764 | 3459 ft | 6 kts | 358° |
| 2026-05-07 01:55 | -15.86476 | -47.92767 | 3459 ft | 8 kts | 355° |
| 2026-05-07 01:56 | -15.86426 | -47.92772 | 3457 ft | 7 kts | 5° |
| 2026-05-07 01:56 | -15.86386 | -47.92749 | 3458 ft | 8 kts | 37° |
| 2026-05-07 01:56 | -15.86356 | -47.92703 | 3458 ft | 7 kts | 70° |
| 2026-05-07 01:56 | -15.86353 | -47.92686 | 3457 ft | 0 kts | 86° |
| 2026-05-07 01:57 | -15.86352 | -47.92671 | 3457 ft | 12 kts | 87° |
| 2026-05-07 01:57 | -15.86338 | -47.92416 | 3461 ft | 58 kts | 86° |
| 2026-05-07 01:57 | -15.86299 | -47.91843 | 3461 ft | 103 kts | 87° |
| 2026-05-07 01:57 | -15.86242 | -47.90954 | 3474 ft | 140 kts | 88° |
| 2026-05-07 01:58 | -15.86171 | -47.89892 | 3760 ft | 150 kts | 87° |
| 2026-05-07 01:58 | -15.86091 | -47.88814 | 4301 ft | 146 kts | 83° |
| 2026-05-07 01:58 | -15.85601 | -47.87897 | 4731 ft | 160 kts | 41° |
| 2026-05-07 01:58 | -15.84559 | -47.87402 | 5199 ft | 168 kts | 16° |
| 2026-05-07 01:59 | -15.83322 | -47.87386 | 5420 ft | 196 kts | 352° |
| 2026-05-07 01:59 | -15.82016 | -47.87912 | 5577 ft | 200 kts | 343° |
| 2026-05-07 01:59 | -15.80738 | -47.88433 | 5952 ft | 196 kts | 346° |
| 2026-05-07 01:59 | -15.79434 | -47.88814 | 6249 ft | 193 kts | 353° |
| 2026-05-07 02:00 | -15.78113 | -47.89028 | 6556 ft | 191 kts | 360° |
| 2026-05-07 02:00 | -15.76787 | -47.89099 | 6834 ft | 190 kts | 5° |
| 2026-05-07 02:00 | -15.75471 | -47.89069 | 7102 ft | 189 kts | 8° |
| 2026-05-07 02:00 | -15.74173 | -47.89000 | 7387 ft | 189 kts | 8° |
| 2026-05-07 02:01 | -15.72840 | -47.88930 | 7658 ft | 190 kts | 7° |
| 2026-05-07 02:01 | -15.71517 | -47.88878 | 7903 ft | 191 kts | 7° |
| 2026-05-07 02:01 | -15.70187 | -47.88822 | 8155 ft | 192 kts | 7° |
| 2026-05-07 02:01 | -15.68869 | -47.88773 | 8404 ft | 192 kts | 7° |
| 2026-05-07 02:02 | -15.67538 | -47.88725 | 8634 ft | 192 kts | 7° |
| 2026-05-07 02:02 | -15.66197 | -47.88674 | 8869 ft | 193 kts | 6° |
| 2026-05-07 02:02 | -15.64858 | -47.88626 | 9133 ft | 193 kts | 7° |
| 2026-05-07 02:02 | -15.63511 | -47.88571 | 9435 ft | 194 kts | 6° |
| 2026-05-07 02:03 | -15.62131 | -47.88516 | 9558 ft | 205 kts | 6° |
| 2026-05-07 02:03 | -15.60692 | -47.88454 | 9865 ft | 208 kts | 6° |
| 2026-05-07 02:03 | -15.59239 | -47.88392 | 10142 ft | 209 kts | 6° |
| 2026-05-07 02:03 | -15.57859 | -47.88326 | 10306 ft | 216 kts | 6° |
| 2026-05-07 02:04 | -15.56347 | -47.88247 | 10568 ft | 218 kts | 6° |
| 2026-05-07 02:04 | -15.54826 | -47.88165 | 10835 ft | 220 kts | 6° |
| 2026-05-07 02:04 | -15.53294 | -47.88072 | 11115 ft | 221 kts | 6° |
| 2026-05-07 02:04 | -15.51757 | -47.88014 | 11251 ft | 220 kts | 4° |
| 2026-05-07 02:05 | -15.50248 | -47.87936 | 11248 ft | 218 kts | 7° |